Time;durP1;ratioP1;P1;durP2;ratioP2;P2;SDS_P1;SDS_P2;PMS_P1;PMS_P2;Temp;Humidity;BMP_temperature;BMP_pressure;BME280_temperature;BME280_humidity;BME280_pressure;Samples;Min_cycle;Max_cycle;Signal;HPM_P1;HPM_P2
2021/12/17 00:01:36;;;;;;;24.80;13.50;;;9.00;92.30;;;;;;5052848;28;20128;-68
2021/12/17 00:04:14;;;;;;;23.00;13.18;;;9.00;92.30;;;;;;5033022;28;20529;-67
2021/12/17 00:06:47;;;;;;;24.00;13.50;;;9.00;92.30;;;;;;5033328;28;20414;-67
2021/12/17 00:09:13;;;;;;;23.88;14.20;;;9.00;92.30;;;;;;5032453;28;20287;-68
2021/12/17 00:11:39;;;;;;;22.27;12.75;;;9.00;92.30;;;;;;5033042;28;20045;-67
2021/12/17 00:14:04;;;;;;;26.88;14.80;;;9.00;92.30;;;;;;5032792;28;20449;-67
2021/12/17 00:16:36;;;;;;;25.20;13.27;;;8.90;92.40;;;;;;5033057;28;20052;-68
2021/12/17 00:48:41;;;;;;;15.38;10.73;;;9.00;92.50;;;;;;5032301;28;20045;-68
2021/12/17 00:53:50;;;;;;;17.02;9.98;;;9.10;92.50;;;;;;5031852;28;20426;-68
2021/12/17 00:56:16;;;;;;;17.65;11.25;;;9.10;92.40;;;;;;5042604;28;20048;-68
2021/12/17 00:58:41;;;;;;;16.40;10.35;;;9.10;92.40;;;;;;5050814;28;20056;-68
2021/12/17 01:01:08;;;;;;;18.63;10.45;;;9.10;92.40;;;;;;5052008;28;20048;-68
2021/12/17 01:03:33;;;;;;;17.50;11.30;;;9.10;92.30;;;;;;5052094;28;20056;-68
2021/12/17 01:05:59;;;;;;;18.73;11.07;;;9.10;92.30;;;;;;5050219;28;20498;-68
2021/12/17 01:08:25;;;;;;;18.13;10.38;;;9.10;92.30;;;;;;5051651;28;20055;-68
2021/12/17 01:10:54;;;;;;;17.15;9.57;;;9.10;92.30;;;;;;5051725;28;20399;-68
2021/12/17 01:13:21;;;;;;;17.75;11.00;;;9.20;92.30;;;;;;5051305;28;20049;-68
2021/12/17 01:15:49;;;;;;;18.17;10.55;;;9.20;92.20;;;;;;5051389;28;20032;-67
2021/12/17 01:18:20;;;;;;;17.52;9.98;;;9.20;92.30;;;;;;5051687;28;20045;-68
2021/12/17 01:21:19;;;;;;;23.58;10.68;;;9.20;92.20;;;;;;5051642;28;20128;-68
2021/12/17 01:24:02;;;;;;;18.80;10.75;;;9.20;92.10;;;;;;5051559;28;20053;-67
2021/12/17 01:35:21;;;;;;;20.63;12.70;;;9.30;92.10;;;;;;5025114;28;20136;-68
2021/12/17 01:38:45;;;;;;;23.40;12.05;;;9.30;92.00;;;;;;5048637;28;20057;-68
2021/12/17 01:43:00;;;;;;;25.23;13.30;;;9.20;91.90;;;;;;5031328;28;20307;-67
2021/12/17 01:45:30;;;;;;;30.23;14.70;;;9.20;91.80;;;;;;5031148;28;20179;-67
2021/12/17 01:47:58;;;;;;;34.90;14.02;;;9.10;91.80;;;;;;5013278;28;20050;-68
2021/12/17 01:56:18;;;;;;;36.42;16.38;;;9.00;91.90;;;;;;5039374;28;20069;-68
2021/12/17 02:01:32;;;;;;;47.92;16.92;;;8.90;92.00;;;;;;5051002;28;20052;-67
2021/12/17 02:03:58;;;;;;;36.45;16.67;;;8.80;92.30;;;;;;5050511;28;20052;-67
2021/12/17 02:06:24;;;;;;;44.33;18.58;;;8.90;92.30;;;;;;5050539;28;20048;-68
2021/12/17 02:08:52;;;;;;;36.63;17.30;;;8.80;92.20;;;;;;5050608;28;20254;-67
2021/12/17 02:11:55;;;;;;;39.70;17.63;;;8.90;92.40;;;;;;5050921;28;20057;-68
2021/12/17 02:30:39;;;;;;;36.28;17.15;;;8.70;92.60;;;;;;5030558;28;20045;-67
2021/12/17 02:33:04;;;;;;;35.78;15.27;;;8.70;92.60;;;;;;5030238;28;20132;-67
2021/12/17 02:35:34;;;;;;;38.90;15.48;;;8.70;92.50;;;;;;5029925;28;20132;-68
2021/12/17 02:38:01;;;;;;;36.92;15.73;;;8.70;92.50;;;;;;5030266;28;20060;-67
2021/12/17 02:46:09;;;;;;;30.83;14.63;;;8.60;92.60;;;;;;5049705;28;20057;-68
2021/12/17 02:48:36;;;;;;;39.05;15.15;;;8.60;92.60;;;;;;5047661;28;20093;-67
2021/12/17 02:51:03;;;;;;;33.58;14.73;;;8.60;92.60;;;;;;5040303;28;20056;-67
2021/12/17 02:53:29;;;;;;;33.20;15.07;;;8.60;92.60;;;;;;5029203;28;20042;-68
2021/12/17 02:56:01;;;;;;;30.38;14.70;;;8.60;92.70;;;;;;5029971;28;20427;-67
2021/12/17 02:58:30;;;;;;;36.17;14.13;;;8.70;92.70;;;;;;5029323;28;20148;-67
2021/12/17 03:00:56;;;;;;;35.15;15.73;;;8.70;92.70;;;;;;5029768;28;20210;-67
2021/12/17 03:03:25;;;;;;;32.83;16.20;;;8.70;92.60;;;;;;5030064;28;20038;-67
2021/12/17 03:05:52;;;;;;;31.10;15.48;;;8.70;92.60;;;;;;5028432;28;20487;-67
2021/12/17 03:08:19;;;;;;;34.28;15.48;;;8.70;92.60;;;;;;5029556;28;20064;-68
2021/12/17 03:10:49;;;;;;;36.45;15.55;;;8.70;92.60;;;;;;5029569;28;20068;-67
2021/12/17 03:13:17;;;;;;;32.40;14.75;;;8.70;92.50;;;;;;5029689;28;20131;-68
2021/12/17 03:15:52;;;;;;;33.10;14.55;;;8.70;92.60;;;;;;5029810;28;20049;-67
2021/12/17 03:23:41;;;;;;;31.23;15.65;;;8.60;92.60;;;;;;5048987;28;19921;-67
2021/12/17 03:26:09;;;;;;;31.75;15.15;;;8.60;92.80;;;;;;5049658;28;20681;-67
2021/12/17 03:28:36;;;;;;;41.08;15.82;;;8.60;92.70;;;;;;5049359;28;20044;-67
2021/12/17 03:31:02;;;;;;;31.10;14.07;;;8.60;92.70;;;;;;5048473;28;20057;-67
2021/12/17 03:33:28;;;;;;;28.50;13.88;;;8.60;92.70;;;;;;5049018;28;20048;-67
2021/12/17 03:35:54;;;;;;;32.58;14.60;;;8.60;92.70;;;;;;5049193;28;20041;-67
2021/12/17 03:38:20;;;;;;;25.90;13.50;;;8.50;92.70;;;;;;5049317;28;20505;-67
2021/12/17 03:40:47;;;;;;;30.35;13.45;;;8.50;92.70;;;;;;5049114;28;20045;-67
2021/12/17 03:43:21;;;;;;;29.77;14.48;;;8.60;92.70;;;;;;5049446;28;20041;-67
2021/12/17 03:45:47;;;;;;;33.33;15.23;;;8.60;92.70;;;;;;5048716;28;20493;-67
2021/12/17 03:48:12;;;;;;;30.75;14.40;;;8.50;92.80;;;;;;5043607;28;20041;-67
2021/12/17 03:50:38;;;;;;;31.58;14.27;;;8.60;92.80;;;;;;5038033;28;20518;-67
2021/12/17 03:53:05;;;;;;;29.40;14.77;;;8.60;92.70;;;;;;5048633;28;20461;-67
2021/12/17 03:55:31;;;;;;;27.33;14.48;;;8.60;92.70;;;;;;5048476;28;20084;-67
2021/12/17 03:58:01;;;;;;;31.90;14.23;;;8.60;92.80;;;;;;5048804;28;20080;-67
2021/12/17 04:00:29;;;;;;;35.42;14.88;;;8.60;92.70;;;;;;5048999;28;20072;-67
2021/12/17 04:02:55;;;;;;;29.38;13.60;;;8.60;92.80;;;;;;5049077;28;20490;-67
2021/12/17 04:05:21;;;;;;;30.10;13.38;;;8.60;92.70;;;;;;5048717;28;20060;-67
2021/12/17 04:07:47;;;;;;;27.40;12.73;;;8.60;92.70;;;;;;5048760;28;20041;-67
2021/12/17 04:10:13;;;;;;;24.77;13.13;;;8.70;92.70;;;;;;5048926;28;20102;-67
2021/12/17 04:12:52;;;;;;;22.13;12.25;;;8.70;92.60;;;;;;5048833;28;20077;-67
2021/12/17 04:15:17;;;;;;;28.38;13.20;;;8.70;92.60;;;;;;5047874;28;20077;-67
2021/12/17 04:17:54;;;;;;;25.70;13.35;;;8.80;92.60;;;;;;5047136;28;20076;-67
2021/12/17 04:20:19;;;;;;;25.85;12.07;;;8.80;92.60;;;;;;5049116;28;20041;-67
2021/12/17 04:22:45;;;;;;;24.05;12.45;;;8.80;92.60;;;;;;5048552;28;20052;-67
2021/12/17 04:25:10;;;;;;;26.73;12.10;;;8.80;92.50;;;;;;5027674;28;20049;-67
2021/12/17 04:27:36;;;;;;;25.38;11.85;;;8.80;92.50;;;;;;5031909;28;20072;-67
2021/12/17 04:30:02;;;;;;;24.23;12.57;;;8.80;92.50;;;;;;5048776;28;20059;-67
2021/12/17 04:32:28;;;;;;;25.63;12.88;;;8.90;92.50;;;;;;5048758;28;20083;-67
2021/12/17 04:34:53;;;;;;;27.48;13.95;;;8.90;92.50;;;;;;5048162;28;20084;-67
2021/12/17 04:37:19;;;;;;;26.02;13.18;;;8.90;92.50;;;;;;5030692;28;20076;-67
2021/12/17 04:39:45;;;;;;;25.77;12.82;;;8.90;92.40;;;;;;5048305;28;20120;-67
2021/12/17 04:42:18;;;;;;;22.70;12.63;;;8.90;92.40;;;;;;5050132;28;20043;-67
2021/12/17 04:44:51;;;;;;;27.73;12.68;;;8.90;92.40;;;;;;5050424;28;20048;-67
2021/12/17 04:57:42;;;;;;;28.52;11.80;;;8.90;92.30;;;;;;5051807;28;20052;-67
2021/12/17 05:00:20;;;;;;;27.38;13.07;;;8.90;92.30;;;;;;5052084;28;20049;-67
2021/12/17 05:02:50;;;;;;;22.52;11.30;;;9.00;92.30;;;;;;5035540;28;20076;-67
2021/12/17 05:05:19;;;;;;;21.35;10.77;;;9.00;92.30;;;;;;5050810;28;20394;-67
2021/12/17 05:07:57;;;;;;;26.50;12.02;;;9.00;92.30;;;;;;5042305;28;20057;-67
2021/12/17 05:10:41;;;;;;;20.13;10.85;;;9.00;92.20;;;;;;5048720;28;20075;-67
2021/12/17 05:18:46;;;;;;;27.52;12.00;;;9.00;92.20;;;;;;5031813;28;20050;-68
2021/12/17 05:21:12;;;;;;;27.58;13.05;;;9.10;92.10;;;;;;5031725;28;20418;-68
2021/12/17 05:23:42;;;;;;;20.77;11.90;;;9.00;92.10;;;;;;5031799;28;20045;-68
2021/12/17 05:26:16;;;;;;;20.92;11.77;;;9.10;92.00;;;;;;5044831;28;20509;-68
2021/12/17 05:28:42;;;;;;;22.58;11.13;;;9.00;92.10;;;;;;5051211;28;20049;-69
2021/12/17 05:31:08;;;;;;;23.30;12.18;;;9.10;92.00;;;;;;5051472;28;20041;-68
2021/12/17 05:33:34;;;;;;;24.40;11.25;;;9.10;92.00;;;;;;5050286;28;20414;-67
2021/12/17 05:35:59;;;;;;;29.33;11.32;;;9.10;91.90;;;;;;5050466;28;20041;-68
2021/12/17 05:38:27;;;;;;;20.50;10.77;;;9.00;91.90;;;;;;5044436;28;20052;-68
2021/12/17 05:40:54;;;;;;;19.75;10.25;;;9.00;91.90;;;;;;5041752;28;20052;-68
2021/12/17 05:43:20;;;;;;;16.73;8.80;;;9.00;91.90;;;;;;5071383;28;20056;-68
2021/12/17 05:48:23;;;;;;;19.85;10.43;;;9.10;91.90;;;;;;5043677;28;20056;-68
2021/12/17 05:50:52;;;;;;;19.33;10.45;;;9.10;91.90;;;;;;5049305;28;20049;-68
2021/12/17 05:53:18;;;;;;;21.70;9.48;;;9.10;91.90;;;;;;5043343;28;20037;-68
2021/12/17 05:55:44;;;;;;;21.10;9.98;;;9.10;91.80;;;;;;5049347;28;20599;-67
2021/12/17 05:58:11;;;;;;;16.65;9.27;;;9.10;91.70;;;;;;5050090;28;20037;-68
2021/12/17 06:00:40;;;;;;;17.23;8.23;;;9.10;91.70;;;;;;5045186;28;20086;-67
2021/12/17 06:03:06;;;;;;;20.15;10.02;;;9.10;91.70;;;;;;5029233;28;20076;-66
2021/12/17 06:05:32;;;;;;;18.42;10.25;;;9.10;91.70;;;;;;5030292;28;20033;-66
2021/12/17 06:07:58;;;;;;;16.20;9.07;;;9.10;91.70;;;;;;5030248;28;20045;-65
2021/12/17 06:10:24;;;;;;;17.17;8.63;;;9.10;91.70;;;;;;5048663;28;20494;-66
2021/12/17 06:12:50;;;;;;;15.45;8.98;;;9.10;91.60;;;;;;5050047;28;20041;-66
2021/12/17 06:15:18;;;;;;;18.08;9.48;;;9.20;91.60;;;;;;5041574;28;20053;-65
2021/12/17 06:17:44;;;;;;;15.68;8.50;;;9.20;91.70;;;;;;5038972;28;20064;-66
2021/12/17 06:20:12;;;;;;;21.70;9.13;;;9.20;91.60;;;;;;5045294;28;20189;-65
2021/12/17 06:22:39;;;;;;;18.33;9.68;;;9.30;91.50;;;;;;5047515;28;20114;-66
2021/12/17 06:25:06;;;;;;;20.73;9.75;;;9.20;91.50;;;;;;5041757;28;20486;-66
2021/12/17 06:27:32;;;;;;;17.45;9.75;;;9.30;91.40;;;;;;5049189;28;20486;-66
2021/12/17 06:29:59;;;;;;;20.63;10.02;;;9.30;91.40;;;;;;5049232;28;20041;-65
2021/12/17 06:32:25;;;;;;;21.42;9.57;;;9.20;91.30;;;;;;5049515;28;20045;-65
2021/12/17 06:34:51;;;;;;;21.48;9.30;;;9.20;91.20;;;;;;5042131;28;20030;-66
2021/12/17 06:37:18;;;;;;;17.25;10.15;;;9.30;91.20;;;;;;5036365;28;20048;-66
2021/12/17 06:39:45;;;;;;;16.33;9.32;;;9.20;91.20;;;;;;5039543;28;20162;-66
2021/12/17 06:42:12;;;;;;;18.25;10.68;;;9.20;91.20;;;;;;5027775;28;20053;-66
2021/12/17 06:44:39;;;;;;;17.80;9.20;;;9.20;91.20;;;;;;5038802;28;20044;-65
2021/12/17 06:47:13;;;;;;;19.02;9.68;;;9.10;91.20;;;;;;5036130;28;20064;-65
2021/12/17 07:09:18;;;;;;;12.77;7.70;;;9.00;91.30;;;;;;5034859;28;20041;-65
2021/12/17 07:40:30;;;;;;;12.45;7.70;;;8.60;91.20;;;;;;5048499;28;20095;-65
2021/12/17 07:42:56;;;;;;;14.52;8.20;;;8.70;91.50;;;;;;5048598;28;20494;-65
2021/12/17 07:45:22;;;;;;;11.23;7.50;;;8.70;91.50;;;;;;5049763;28;20056;-65
2021/12/17 07:47:48;;;;;;;11.68;7.72;;;8.70;91.60;;;;;;5068938;28;20033;-65
2021/12/17 07:50:13;;;;;;;13.68;6.90;;;8.80;91.60;;;;;;5056141;28;20473;-65
2021/12/17 07:52:39;;;;;;;12.32;7.35;;;8.70;91.60;;;;;;5048594;28;20497;-65
2021/12/17 07:55:05;;;;;;;11.88;7.65;;;8.80;91.60;;;;;;5048931;28;20537;-65
2021/12/17 07:57:30;;;;;;;11.77;7.68;;;8.80;91.60;;;;;;5049099;28;20052;-65
2021/12/17 07:59:56;;;;;;;13.27;7.57;;;8.80;91.70;;;;;;5043963;28;20083;-65
2021/12/17 08:02:21;;;;;;;11.90;7.57;;;8.80;92.10;;;;;;5047471;28;20095;-66
2021/12/17 08:04:47;;;;;;;13.02;7.32;;;8.80;92.00;;;;;;5047428;28;20032;-65
2021/12/17 08:07:13;;;;;;;13.00;8.10;;;8.80;92.00;;;;;;5048741;28;20437;-65
2021/12/17 08:09:40;;;;;;;11.85;8.05;;;8.80;91.90;;;;;;5048812;28;20048;-65
2021/12/17 08:12:08;;;;;;;12.90;7.72;;;8.80;91.80;;;;;;5040000;28;20080;-65
2021/12/17 08:14:33;;;;;;;11.88;7.75;;;8.80;91.80;;;;;;5038610;28;20487;-64
2021/12/17 08:17:13;;;;;;;13.30;8.25;;;8.90;91.80;;;;;;5039140;28;20244;-64
2021/12/17 08:25:16;;;;;;;13.70;8.15;;;8.90;91.80;;;;;;5052801;28;20045;-64
2021/12/17 08:32:34;;;;;;;14.93;7.97;;;8.90;91.80;;;;;;5050011;28;20053;-64
2021/12/17 08:34:59;;;;;;;12.20;7.22;;;8.90;91.90;;;;;;5052117;28;20041;-64
2021/12/17 08:37:25;;;;;;;16.17;9.10;;;8.90;91.90;;;;;;5046528;28;20037;-65
2021/12/17 08:39:51;;;;;;;15.05;8.70;;;9.00;91.90;;;;;;5029763;28;20057;-64
2021/12/17 08:42:16;;;;;;;15.77;9.18;;;9.00;91.90;;;;;;5047310;28;20152;-65
2021/12/17 08:44:42;;;;;;;15.32;9.48;;;9.00;91.90;;;;;;5051746;28;20044;-65
2021/12/17 08:47:09;;;;;;;14.68;9.00;;;9.00;92.00;;;;;;5052043;28;20048;-65
2021/12/17 08:49:35;;;;;;;15.77;8.93;;;9.00;91.90;;;;;;5051003;28;20049;-64
2021/12/17 08:52:01;;;;;;;14.25;8.65;;;9.00;92.00;;;;;;5049582;28;20049;-64
2021/12/17 08:54:26;;;;;;;13.95;8.48;;;9.00;92.00;;;;;;5051244;28;20041;-64
2021/12/17 08:56:52;;;;;;;15.23;8.98;;;9.00;92.10;;;;;;5032399;28;20034;-65
2021/12/17 08:59:18;;;;;;;14.73;9.32;;;9.00;92.00;;;;;;5051346;28;20076;-65
2021/12/17 09:01:45;;;;;;;15.05;9.30;;;9.00;92.10;;;;;;5051267;28;20063;-65
2021/12/17 09:04:11;;;;;;;15.20;9.25;;;9.00;92.10;;;;;;5051148;28;20536;-65
2021/12/17 09:06:36;;;;;;;13.20;8.27;;;9.00;91.90;;;;;;5050963;28;20076;-65
2021/12/17 09:09:03;;;;;;;13.80;8.40;;;9.00;92.20;;;;;;5051157;28;20077;-65
2021/12/17 09:11:30;;;;;;;20.88;8.02;;;9.00;92.10;;;;;;5048063;28;20041;-65
2021/12/17 09:13:57;;;;;;;14.77;8.15;;;9.00;92.30;;;;;;5051136;28;20413;-66
2021/12/17 09:16:23;;;;;;;12.75;7.88;;;9.10;92.30;;;;;;5050978;28;20151;-66
2021/12/17 09:18:50;;;;;;;16.48;9.63;;;9.10;92.20;;;;;;5049865;28;20041;-66
2021/12/17 09:21:17;;;;;;;15.60;8.68;;;9.10;92.20;;;;;;5051341;28;20124;-66
2021/12/17 09:23:44;;;;;;;15.70;8.18;;;9.10;92.10;;;;;;5051110;28;20044;-66
2021/12/17 09:26:11;;;;;;;14.05;8.30;;;9.10;92.10;;;;;;5051021;28;20072;-65
2021/12/17 09:28:36;;;;;;;16.30;8.82;;;9.10;92.10;;;;;;5043414;28;20042;-65
2021/12/17 09:31:05;;;;;;;16.70;9.52;;;9.10;92.20;;;;;;5049044;28;20047;-65
2021/12/17 09:33:31;;;;;;;16.67;8.43;;;9.10;92.10;;;;;;5042380;28;20076;-65
2021/12/17 09:35:57;;;;;;;16.05;8.85;;;9.10;92.20;;;;;;5030870;28;20128;-66
2021/12/17 09:38:22;;;;;;;19.52;9.43;;;9.10;92.20;;;;;;5031426;28;20137;-65
2021/12/17 09:40:49;;;;;;;16.98;9.05;;;9.20;92.10;;;;;;5044824;28;20119;-66
2021/12/17 09:43:15;;;;;;;15.55;8.32;;;9.20;92.20;;;;;;5051216;28;20132;-66
2021/12/17 09:45:41;;;;;;;18.85;9.02;;;9.20;92.10;;;;;;5047296;28;20072;-66
2021/12/17 09:48:07;;;;;;;17.02;8.57;;;9.20;92.00;;;;;;5043284;28;20076;-66
2021/12/17 09:50:33;;;;;;;15.50;9.10;;;9.30;92.10;;;;;;5047953;28;20033;-66
2021/12/17 09:52:59;;;;;;;16.67;8.55;;;9.20;92.10;;;;;;5050772;28;20506;-65
2021/12/17 09:55:25;;;;;;;13.90;7.95;;;9.30;92.10;;;;;;5049964;28;20037;-66
2021/12/17 09:57:52;;;;;;;19.73;9.65;;;9.30;92.10;;;;;;5050230;28;20044;-66
2021/12/17 10:00:22;;;;;;;18.58;9.45;;;9.30;92.10;;;;;;5048355;28;20041;-65
2021/12/17 10:02:49;;;;;;;18.65;8.63;;;9.30;92.10;;;;;;5047342;28;20041;-66
2021/12/17 10:05:24;;;;;;;14.57;7.55;;;9.30;92.00;;;;;;5042029;28;20076;-66
2021/12/17 10:07:55;;;;;;;16.58;8.93;;;9.40;92.00;;;;;;5043430;28;20045;-66
2021/12/17 10:10:31;;;;;;;16.03;8.33;;;9.40;92.10;;;;;;5048165;28;20047;-66
2021/12/17 10:13:06;;;;;;;14.60;8.18;;;9.40;92.00;;;;;;5049576;28;20037;-65
2021/12/17 10:15:35;;;;;;;18.20;9.00;;;9.50;92.10;;;;;;5048734;28;20041;-66
2021/12/17 10:18:02;;;;;;;22.02;9.10;;;9.50;92.10;;;;;;5039863;28;20130;-68
2021/12/17 10:20:34;;;;;;;16.80;7.90;;;9.50;92.10;;;;;;5047900;28;20045;-70
2021/12/17 10:23:06;;;;;;;22.23;8.38;;;9.50;92.10;;;;;;5037041;28;20126;-68
2021/12/17 10:25:34;;;;;;;15.20;8.35;;;9.60;92.10;;;;;;5049744;28;20045;-66
2021/12/17 10:28:03;;;;;;;15.90;8.60;;;9.60;92.10;;;;;;5049092;28;20099;-67
2021/12/17 10:30:30;;;;;;;14.40;9.15;;;9.60;92.10;;;;;;5048072;28;20095;-68
2021/12/17 10:32:58;;;;;;;15.05;7.68;;;9.60;92.00;;;;;;5047491;28;20466;-67
2021/12/17 10:35:26;;;;;;;16.45;7.60;;;9.70;92.00;;;;;;5031598;28;20069;-67
2021/12/17 10:37:56;;;;;;;12.82;7.35;;;9.70;92.00;;;;;;5030998;28;20064;-67
2021/12/17 10:40:26;;;;;;;14.32;7.40;;;9.80;92.00;;;;;;5029670;28;20057;-68
2021/12/17 10:43:23;;;;;;;14.57;7.25;;;9.80;91.90;;;;;;5044259;28;20041;-68
2021/12/17 10:54:18;;;;;;;8.00;5.28;;;9.90;91.80;;;;;;5048645;28;20056;-68
2021/12/17 10:56:47;;;;;;;8.55;5.28;;;9.90;91.80;;;;;;5037012;28;20067;-67
2021/12/17 10:59:18;;;;;;;6.85;4.85;;;9.90;91.70;;;;;;5047931;28;20068;-65
2021/12/17 11:01:46;;;;;;;;;;;10.00;91.70;;;;;;5048169;28;20079;-67
2021/12/17 11:04:18;;;;;;;8.70;4.65;;;9.90;91.50;;;;;;5048405;28;20270;-67
2021/12/17 11:07:01;;;;;;;8.25;4.43;;;9.90;91.90;;;;;;5049453;28;20045;-66
2021/12/17 11:09:57;;;;;;;6.68;4.22;;;10.00;91.70;;;;;;5048560;28;20082;-67
2021/12/17 11:12:36;;;;;;;10.45;4.15;;;10.00;91.70;;;;;;5049140;28;20052;-67
2021/12/17 11:15:10;;;;;;;9.25;3.97;;;10.00;91.60;;;;;;5044170;28;20151;-67
2021/12/17 11:17:36;;;;;;;7.90;4.40;;;10.10;91.70;;;;;;5045379;28;20494;-67
2021/12/17 11:20:12;;;;;;;6.38;3.60;;;10.10;91.60;;;;;;5046796;28;20124;-68
2021/12/17 11:22:40;;;;;;;7.95;3.40;;;10.10;91.60;;;;;;5039596;28;20424;-68
2021/12/17 11:25:07;;;;;;;5.35;3.65;;;10.10;91.50;;;;;;5047891;28;20041;-68
2021/12/17 11:27:33;;;;;;;5.05;3.63;;;10.10;91.50;;;;;;5048576;28;20040;-68
2021/12/17 11:30:00;;;;;;;4.28;3.20;;;10.10;91.40;;;;;;5047254;28;20401;-68
2021/12/17 11:32:26;;;;;;;3.55;3.05;;;10.20;91.30;;;;;;5049255;28;20049;-68
2021/12/17 11:34:53;;;;;;;4.05;3.58;;;10.20;91.30;;;;;;5048712;28;20032;-67
2021/12/17 11:37:20;;;;;;;5.18;3.58;;;10.20;91.50;;;;;;5048709;28;20561;-67
2021/12/17 11:39:53;;;;;;;5.47;3.45;;;10.30;91.30;;;;;;5046796;28;20049;-67
2021/12/17 11:42:48;;;;;;;5.78;3.40;;;10.30;91.20;;;;;;5047613;28;20063;-67
2021/12/17 11:45:28;;;;;;;3.40;3.10;;;10.30;91.10;;;;;;5048751;28;20542;-67
2021/12/17 11:48:09;;;;;;;4.40;3.53;;;10.20;91.20;;;;;;5047932;28;20045;-67
2021/12/17 11:50:36;;;;;;;3.67;3.25;;;10.20;91.20;;;;;;5039914;28;20045;-67
2021/12/17 11:53:23;;;;;;;4.15;3.75;;;10.20;91.20;;;;;;5051493;28;20518;-67
2021/12/17 11:55:57;;;;;;;6.45;3.72;;;10.20;91.20;;;;;;5052076;28;20056;-67
2021/12/17 11:58:43;;;;;;;4.63;3.47;;;10.20;91.30;;;;;;5053336;28;20103;-67
2021/12/17 12:01:09;;;;;;;3.90;3.50;;;10.20;91.20;;;;;;5052764;28;20041;-67
2021/12/17 12:03:34;;;;;;;4.05;3.63;;;10.20;91.20;;;;;;5052823;28;20067;-67
2021/12/17 12:06:00;;;;;;;4.93;3.80;;;10.20;91.20;;;;;;5050487;28;20041;-67
2021/12/17 12:08:35;;;;;;;6.45;4.05;;;10.20;91.20;;;;;;5041125;28;20383;-66
2021/12/17 12:11:03;;;;;;;4.05;3.65;;;10.20;91.20;;;;;;5052378;28;20514;-65
2021/12/17 12:13:44;;;;;;;5.03;3.92;;;10.10;91.30;;;;;;5049282;28;20033;-65
2021/12/17 12:16:21;;;;;;;7.40;4.10;;;10.20;91.30;;;;;;5048353;28;20098;-65
2021/12/17 12:18:49;;;;;;;6.30;4.13;;;10.10;91.30;;;;;;5052515;28;20173;-66
2021/12/17 12:21:17;;;;;;;4.70;4.07;;;10.20;91.40;;;;;;5049348;28;20454;-65
2021/12/17 12:24:09;;;;;;;4.65;4.15;;;10.20;91.30;;;;;;5052096;28;20513;-67
2021/12/17 12:26:50;;;;;;;4.50;3.90;;;10.20;91.30;;;;;;5052161;28;20119;-67
2021/12/17 12:29:27;;;;;;;5.45;4.30;;;10.20;91.50;;;;;;5051580;28;20084;-67
2021/12/17 12:31:59;;;;;;;5.97;4.20;;;10.20;91.40;;;;;;5052144;28;20048;-67
2021/12/17 12:34:30;;;;;;;5.70;4.43;;;10.30;91.40;;;;;;5052685;28;20048;-67
2021/12/17 12:37:08;;;;;;;6.25;4.75;;;10.30;91.30;;;;;;5051710;28;20053;-67
2021/12/17 12:39:38;;;;;;;4.78;4.28;;;10.30;91.30;;;;;;5051333;28;20094;-67
2021/12/17 12:42:13;;;;;;;6.07;4.32;;;10.30;91.30;;;;;;5051676;28;20059;-67
2021/12/17 12:44:44;;;;;;;5.22;4.70;;;10.30;91.30;;;;;;5051330;28;20111;-67
2021/12/17 12:47:29;;;;;;;5.60;4.63;;;10.30;91.30;;;;;;5051838;28;20134;-67
2021/12/17 12:50:07;;;;;;;4.85;4.15;;;10.20;91.30;;;;;;5051734;28;20060;-64
2021/12/17 12:52:40;;;;;;;6.28;4.25;;;10.30;91.30;;;;;;5051881;28;20041;-66
2021/12/17 12:55:17;;;;;;;5.70;4.22;;;10.30;91.20;;;;;;5051264;28;20045;-67
2021/12/17 12:58:12;;;;;;;5.47;4.13;;;10.30;91.20;;;;;;5051606;28;20044;-67
2021/12/17 13:00:55;;;;;;;5.32;4.55;;;10.30;91.00;;;;;;5051884;28;20041;-67
2021/12/17 13:03:26;;;;;;;7.13;5.03;;;10.30;91.20;;;;;;5051078;28;20119;-67
2021/12/17 13:05:53;;;;;;;5.43;4.90;;;10.30;91.20;;;;;;5050184;28;20049;-67
2021/12/17 13:08:21;;;;;;;5.28;4.45;;;10.30;91.10;;;;;;5050673;28;20290;-67
2021/12/17 13:10:54;;;;;;;5.18;4.68;;;10.30;91.10;;;;;;5050945;28;20051;-67
2021/12/17 13:16:35;;;;;;;7.43;4.82;;;10.30;91.00;;;;;;5055983;28;20079;-67
2021/12/17 13:26:37;;;;;;;5.68;5.03;;;10.60;90.50;;;;;;5049790;28;20128;-67
2021/12/17 13:29:12;;;;;;;6.25;5.45;;;10.50;90.50;;;;;;5043722;28;20052;-67
2021/12/17 13:31:42;;;;;;;6.00;5.15;;;10.50;90.50;;;;;;5040608;28;20025;-67
2021/12/17 13:34:14;;;;;;;6.20;4.68;;;10.50;90.50;;;;;;5041299;28;20073;-67
2021/12/17 13:36:59;;;;;;;;;;;10.40;90.50;;;;;;5033708;28;20045;-67
2021/12/17 13:39:49;;;;;;;6.50;4.93;;;10.40;90.30;;;;;;5035771;28;20393;-67
2021/12/17 13:42:23;;;;;;;5.80;4.75;;;10.40;90.60;;;;;;5040816;28;20055;-67
2021/12/17 13:44:56;;;;;;;5.72;4.32;;;10.40;90.70;;;;;;5039235;28;20172;-67
2021/12/17 13:47:31;;;;;;;5.97;4.22;;;10.40;90.70;;;;;;5037323;28;20128;-67
2021/12/17 13:49:59;;;;;;;5.10;3.90;;;10.40;90.60;;;;;;5044910;28;20042;-67
2021/12/17 13:52:27;;;;;;;5.35;4.03;;;10.40;90.60;;;;;;5034598;28;20053;-67
2021/12/17 13:54:54;;;;;;;5.65;3.83;;;10.30;90.60;;;;;;5030024;28;20055;-66
2021/12/17 13:57:23;;;;;;;4.82;3.85;;;10.30;90.50;;;;;;5045135;28;20037;-66
2021/12/17 13:59:49;;;;;;;4.50;3.70;;;10.30;90.50;;;;;;5050905;28;20284;-67
2021/12/17 14:02:21;;;;;;;4.43;3.83;;;10.30;90.50;;;;;;5027859;28;20068;-67
2021/12/17 14:05:04;;;;;;;5.10;3.72;;;10.30;90.50;;;;;;5040463;28;20051;-67
2021/12/17 14:07:32;;;;;;;4.10;3.70;;;10.30;90.40;;;;;;5050825;28;20525;-67
2021/12/17 14:10:00;;;;;;;3.90;3.08;;;10.20;90.50;;;;;;5050411;28;20033;-67
2021/12/17 14:12:31;;;;;;;4.03;3.63;;;10.20;90.60;;;;;;5050027;28;20045;-67
2021/12/17 14:15:09;;;;;;;4.75;3.72;;;10.20;90.50;;;;;;5049950;28;20037;-67
2021/12/17 14:17:37;;;;;;;4.90;3.53;;;10.20;90.60;;;;;;5047025;28;20111;-67
2021/12/17 14:20:28;;;;;;;3.95;3.28;;;10.10;90.50;;;;;;5048718;28;20126;-67
2021/12/17 14:22:59;;;;;;;4.32;3.28;;;10.10;90.50;;;;;;5047903;28;20060;-67
2021/12/17 14:25:29;;;;;;;5.40;3.28;;;10.10;90.60;;;;;;5050075;28;20471;-67
2021/12/17 14:27:57;;;;;;;5.10;3.17;;;10.10;90.50;;;;;;5049391;28;20041;-67
2021/12/17 14:30:33;;;;;;;5.53;3.50;;;10.10;90.50;;;;;;5049184;28;20045;-67
2021/12/17 14:33:04;;;;;;;4.78;3.40;;;10.10;90.50;;;;;;5050114;28;20075;-67
2021/12/17 14:35:43;;;;;;;4.32;3.30;;;10.10;90.50;;;;;;5047944;28;20052;-67
2021/12/17 14:38:08;;;;;;;5.47;3.85;;;10.20;90.60;;;;;;5049607;28;20049;-67
2021/12/17 14:40:42;;;;;;;5.43;4.25;;;10.10;90.50;;;;;;5049753;28;20074;-67
2021/12/17 14:43:35;;;;;;;6.70;4.75;;;10.20;90.50;;;;;;5047109;28;20545;-67
2021/12/17 14:46:17;;;;;;;8.23;5.10;;;10.20;90.40;;;;;;5049202;28;20481;-67
2021/12/17 14:48:58;;;;;;;5.65;3.20;;;10.10;90.50;;;;;;5046887;28;20038;-67
2021/12/17 15:00:28;;;;;;;4.03;2.80;;;10.00;90.40;;;;;;5029829;28;20049;-66
2021/12/17 15:04:49;;;;;;;3.10;2.80;;;10.00;90.40;;;;;;5048699;28;20048;-66
2021/12/17 15:07:14;;;;;;;7.28;3.47;;;10.00;90.30;;;;;;5043779;28;20037;-67
2021/12/17 15:09:43;;;;;;;3.78;3.15;;;10.00;90.30;;;;;;5029936;28;20604;-67
2021/12/17 15:12:55;;;;;;;6.53;2.97;;;10.00;90.30;;;;;;5037361;28;20059;-67
2021/12/17 15:15:00;;;;;;;4.53;4.07;;;10.00;90.30;;;;;;5043133;28;20072;-66
2021/12/17 15:17:26;;;;;;;6.32;4.55;;;10.00;90.30;;;;;;5046908;28;20033;-67
2021/12/17 15:19:51;;;;;;;6.85;4.88;;;10.00;90.40;;;;;;5047949;28;20383;-67
2021/12/17 15:22:17;;;;;;;6.57;4.90;;;10.00;90.40;;;;;;5047748;28;20045;-67
2021/12/17 15:24:42;;;;;;;5.80;5.18;;;10.00;90.40;;;;;;5037986;28;20033;-67
2021/12/17 15:27:12;;;;;;;9.80;4.75;;;10.00;90.40;;;;;;5029036;28;20508;-67
2021/12/17 15:29:38;;;;;;;5.05;4.55;;;10.00;90.50;;;;;;5039140;28;20044;-67
2021/12/17 15:32:04;;;;;;;5.05;4.55;;;10.00;90.50;;;;;;5047906;28;20049;-67
2021/12/17 15:34:29;;;;;;;5.82;4.28;;;10.00;90.50;;;;;;5041257;28;20059;-67
2021/12/17 15:36:57;;;;;;;5.10;4.18;;;10.00;90.50;;;;;;5043315;28;20041;-67
2021/12/17 15:39:23;;;;;;;4.88;4.30;;;10.00;90.40;;;;;;5031561;28;20052;-67
2021/12/17 15:41:48;;;;;;;5.43;4.60;;;10.00;90.50;;;;;;5043226;28;20045;-67
2021/12/17 15:44:14;;;;;;;8.48;4.93;;;9.90;90.50;;;;;;5047449;28;20044;-67
2021/12/17 15:46:39;;;;;;;6.22;4.05;;;9.90;90.50;;;;;;5035522;28;20036;-67
2021/12/17 15:49:06;;;;;;;5.18;4.68;;;9.90;90.50;;;;;;5047131;28;20037;-67
2021/12/17 15:51:32;;;;;;;5.85;4.75;;;10.00;90.60;;;;;;5045365;28;20443;-67
2021/12/17 15:53:58;;;;;;;8.63;5.07;;;10.00;90.60;;;;;;5045917;28;20090;-67
2021/12/17 15:56:24;;;;;;;5.25;4.75;;;10.00;90.60;;;;;;5027653;28;20043;-67
2021/12/17 15:58:50;;;;;;;7.35;5.07;;;10.00;90.70;;;;;;5034522;28;20042;-67
2021/12/17 16:01:16;;;;;;;5.45;4.95;;;9.90;90.70;;;;;;5041955;28;20053;-66
2021/12/17 16:03:43;;;;;;;5.32;4.82;;;10.00;90.70;;;;;;5048397;28;20417;-66